Time;durP1;ratioP1;P1;durP2;ratioP2;P2;SDS_P1;SDS_P2;PMS_P1;PMS_P2;Temp;Humidity;BMP_temperature;BMP_pressure;BME280_temperature;BME280_humidity;BME280_pressure;Samples;Min_cycle;Max_cycle;Signal;HPM_P1;HPM_P2
2022/02/08 00:01:10;;;;;;;3.87;3.57;;;4.00;99.90;;;;;;5005586;28;20392;-81
2022/02/08 00:03:54;;;;;;;4.20;2.10;;;4.10;99.90;;;;;;5019085;28;20503;-81
2022/02/08 00:06:45;;;;;;;5.47;3.57;;;4.10;99.90;;;;;;5019351;28;20367;-81
2022/02/08 00:09:31;;;;;;;7.47;3.07;;;4.20;99.90;;;;;;5019229;28;20435;-80
2022/02/08 00:12:15;;;;;;;6.23;3.23;;;4.20;99.90;;;;;;5005133;28;20406;-81
2022/02/08 00:15:00;;;;;;;6.80;3.10;;;4.20;99.90;;;;;;4990970;28;20426;-81
2022/02/08 00:17:44;;;;;;;12.27;4.43;;;4.20;99.90;;;;;;5019481;28;20442;-81
2022/02/08 00:20:29;;;;;;;5.00;2.63;;;4.10;99.90;;;;;;5004165;28;20421;-81
2022/02/08 00:23:14;;;;;;;19.53;3.90;;;4.20;99.90;;;;;;4989823;28;20482;-81
2022/02/08 00:25:58;;;;;;;6.73;2.87;;;4.20;99.90;;;;;;5003810;28;20362;-81
2022/02/08 00:28:43;;;;;;;16.37;3.67;;;4.30;99.90;;;;;;5018511;28;20391;-81
2022/02/08 00:31:28;;;;;;;2.40;1.67;;;4.20;99.90;;;;;;5019187;28;20793;-82
2022/02/08 00:34:12;;;;;;;3.90;3.30;;;4.00;99.90;;;;;;5019807;28;20383;-81
2022/02/08 00:36:57;;;;;;;2.10;1.63;;;4.00;99.90;;;;;;5019716;28;20455;-81
2022/02/08 00:39:43;;;;;;;5.10;2.63;;;3.90;99.90;;;;;;5019294;28;20434;-81
2022/02/08 00:42:30;;;;;;;5.63;2.37;;;3.70;99.90;;;;;;5019106;28;20506;-81
2022/02/08 00:45:26;;;;;;;5.00;2.37;;;3.50;99.90;;;;;;5019736;28;20380;-81
2022/02/08 00:48:19;;;;;;;5.07;1.77;;;3.50;99.90;;;;;;5019470;28;20404;-81
2022/02/08 00:51:04;;;;;;;2.97;2.70;;;3.20;99.90;;;;;;4993226;28;20388;-81
2022/02/08 00:53:48;;;;;;;9.50;2.50;;;3.00;99.90;;;;;;5019425;28;20429;-81
2022/02/08 00:56:33;;;;;;;4.20;1.77;;;3.00;99.90;;;;;;5018862;28;20460;-81
2022/02/08 00:59:17;;;;;;;3.43;2.33;;;2.90;99.90;;;;;;5024468;28;20392;-81
2022/02/08 01:02:03;;;;;;;5.43;2.27;;;2.90;99.90;;;;;;5022116;28;20536;-81
2022/02/08 01:04:54;;;;;;;2.10;2.00;;;2.90;99.90;;;;;;5018671;28;20870;-81
2022/02/08 01:07:39;;;;;;;2.13;1.90;;;2.60;99.90;;;;;;5018655;28;20362;-81
2022/02/08 01:10:24;;;;;;;5.80;2.60;;;2.50;99.90;;;;;;5018923;28;20439;-81
2022/02/08 01:13:10;;;;;;;3.00;2.80;;;2.60;99.90;;;;;;5019105;28;20379;-82
2022/02/08 01:15:55;;;;;;;5.93;2.07;;;2.50;99.90;;;;;;5018914;28;20453;-82
2022/02/08 01:18:42;;;;;;;3.00;2.00;;;2.90;99.90;;;;;;5019537;28;20400;-82
2022/02/08 01:21:28;;;;;;;2.53;2.33;;;2.80;99.90;;;;;;5020039;28;20419;-82
2022/02/08 01:24:13;;;;;;;3.43;2.10;;;2.80;99.90;;;;;;5020399;28;20410;-82
2022/02/08 01:27:06;;;;;;;3.33;1.60;;;2.80;99.90;;;;;;5023905;28;20379;-81
2022/02/08 01:29:56;;;;;;;5.63;4.10;;;2.70;99.90;;;;;;5017699;28;20377;-81
2022/02/08 01:35:56;;;;;;;7.13;2.07;;;2.70;99.90;;;;;;5017808;28;20363;-81
2022/02/08 01:38:50;;;;;;;4.43;2.70;;;2.90;99.90;;;;;;5018532;28;20388;-80
2022/02/08 01:41:59;;;;;;;3.13;2.73;;;3.10;99.90;;;;;;5017905;28;20482;-81
2022/02/08 01:44:59;;;;;;;2.53;2.33;;;3.10;99.90;;;;;;4976872;28;20533;-81
2022/02/08 01:48:00;;;;;;;2.70;2.20;;;2.80;99.90;;;;;;4963226;28;20988;-82
2022/02/08 01:50:45;;;;;;;3.17;1.63;;;2.80;99.90;;;;;;4976774;28;20389;-81
2022/02/08 01:53:29;;;;;;;6.30;2.10;;;2.90;99.90;;;;;;4976415;28;20607;-81
2022/02/08 01:56:14;;;;;;;4.57;3.07;;;3.20;99.90;;;;;;4976173;28;20395;-81
2022/02/08 01:58:59;;;;;;;5.00;1.87;;;3.20;99.90;;;;;;4976341;28;20393;-81
2022/02/08 02:01:43;;;;;;;2.60;1.93;;;3.20;99.90;;;;;;4976237;28;20364;-80
2022/02/08 02:04:28;;;;;;;3.03;2.00;;;3.40;99.90;;;;;;4976512;28;20401;-81
2022/02/08 02:07:13;;;;;;;2.87;1.97;;;3.50;99.90;;;;;;4976126;28;20889;-81
2022/02/08 02:09:57;;;;;;;3.37;2.40;;;3.60;99.90;;;;;;4976175;28;20398;-81
2022/02/08 02:12:51;;;;;;;7.03;2.40;;;3.60;99.90;;;;;;4962787;28;20368;-81
2022/02/08 02:15:36;;;;;;;1.93;1.80;;;3.70;99.90;;;;;;5001791;28;20382;-81
2022/02/08 02:18:20;;;;;;;3.93;3.00;;;3.70;99.90;;;;;;5017412;28;20715;-81
2022/02/08 02:21:05;;;;;;;3.40;2.07;;;3.90;99.90;;;;;;5002574;28;20451;-81
2022/02/08 02:23:51;;;;;;;2.60;2.40;;;4.00;99.90;;;;;;5017474;28;20442;-82
2022/02/08 02:26:35;;;;;;;6.83;2.27;;;4.10;99.90;;;;;;5017835;28;20398;-81
2022/02/08 02:29:21;;;;;;;5.27;2.33;;;4.30;99.90;;;;;;5017415;28;20399;-82
2022/02/08 02:32:06;;;;;;;3.40;2.40;;;4.20;99.90;;;;;;5002564;28;20366;-81
2022/02/08 02:34:51;;;;;;;6.73;2.47;;;4.20;99.90;;;;;;5017905;28;20683;-82
2022/02/08 02:37:36;;;;;;;3.30;2.80;;;4.10;99.90;;;;;;5018167;28;20365;-81
2022/02/08 02:40:23;;;;;;;5.90;1.73;;;3.90;99.90;;;;;;5017043;28;20366;-81
2022/02/08 02:43:09;;;;;;;3.27;2.00;;;4.10;99.90;;;;;;5017341;28;21037;-81
2022/02/08 02:45:54;;;;;;;9.30;2.63;;;4.30;99.90;;;;;;5016931;28;20384;-81
2022/02/08 02:48:39;;;;;;;4.80;1.93;;;4.30;99.90;;;;;;5017332;28;20915;-82
2022/02/08 02:51:24;;;;;;;2.73;2.20;;;4.20;99.90;;;;;;5017579;28;20395;-82
2022/02/08 02:54:14;;;;;;;6.27;2.00;;;4.10;99.90;;;;;;5005407;28;20378;-82
2022/02/08 02:57:01;;;;;;;4.80;2.20;;;4.00;99.90;;;;;;5021632;28;20447;-82
2022/02/08 02:59:48;;;;;;;2.13;2.03;;;3.50;99.90;;;;;;5021543;28;20438;-82
2022/02/08 03:02:40;;;;;;;5.97;2.20;;;3.50;99.90;;;;;;5021178;28;20969;-82
2022/02/08 03:05:36;;;;;;;1.60;1.50;;;3.30;99.90;;;;;;5021345;28;20481;-81
2022/02/08 03:20:09;;;;;;;2.53;2.20;;;3.30;99.90;;;;;;5009991;28;20366;-82
2022/02/08 03:22:53;;;;;;;8.00;2.70;;;3.30;99.90;;;;;;5024801;28;20425;-81
2022/02/08 03:25:38;;;;;;;7.93;2.13;;;3.50;99.90;;;;;;5025884;28;20394;-81
2022/02/08 03:28:23;;;;;;;5.73;1.90;;;3.40;99.90;;;;;;5011695;28;20375;-81
2022/02/08 03:31:07;;;;;;;11.17;2.33;;;3.40;99.90;;;;;;5010212;28;20394;-81
2022/02/08 03:33:52;;;;;;;5.30;2.30;;;3.30;99.90;;;;;;5026020;28;20361;-81
2022/02/08 03:36:36;;;;;;;4.77;2.50;;;3.30;99.90;;;;;;5025630;28;20401;-81
2022/02/08 03:39:31;;;;;;;2.67;1.90;;;3.30;99.90;;;;;;5025843;28;20366;-81
2022/02/08 03:42:20;;;;;;;3.83;3.53;;;3.40;99.90;;;;;;5012651;28;20442;-82
2022/02/08 03:45:09;;;;;;;2.30;1.50;;;3.40;99.90;;;;;;5029066;28;20370;-79
2022/02/08 03:47:53;;;;;;;8.90;2.70;;;3.30;99.90;;;;;;5016855;28;20428;-81
2022/02/08 03:50:38;;;;;;;4.10;2.10;;;3.30;99.90;;;;;;5027571;28;20408;-82
2022/02/08 03:53:25;;;;;;;3.30;2.30;;;3.40;99.90;;;;;;5027859;28;20427;-80
2022/02/08 03:56:12;;;;;;;4.17;2.03;;;3.30;99.90;;;;;;5014139;28;20391;-82
2022/02/08 03:58:59;;;;;;;1.87;1.77;;;3.50;99.90;;;;;;5011574;28;20353;-81
2022/02/08 04:04:51;;;;;;;4.20;2.30;;;3.50;99.90;;;;;;5020094;28;20418;-81
2022/02/08 04:07:43;;;;;;;3.53;3.07;;;3.50;99.90;;;;;;5020667;28;20402;-81
2022/02/08 04:10:29;;;;;;;4.53;2.80;;;3.30;99.90;;;;;;5020205;28;20510;-81
2022/02/08 04:16:26;;;;;;;1.80;1.70;;;3.50;99.90;;;;;;5006718;28;20430;-81
2022/02/08 04:19:20;;;;;;;4.93;3.17;;;3.50;99.90;;;;;;5019958;28;20374;-81
2022/02/08 04:43:21;;;;;;;3.43;2.20;;;3.90;99.90;;;;;;5018824;28;20502;-80
2022/02/08 04:46:24;;;;;;;4.23;2.90;;;3.90;99.90;;;;;;5005898;28;20734;-81
2022/02/08 04:49:09;;;;;;;5.80;2.10;;;3.90;99.90;;;;;;5019313;28;20778;-81
2022/02/08 04:51:59;;;;;;;2.13;1.93;;;3.70;99.90;;;;;;5004345;28;20968;-81
2022/02/08 04:54:53;;;;;;;10.83;2.03;;;3.80;99.90;;;;;;5019055;28;20391;-81
2022/02/08 05:00:43;;;;;;;8.13;2.40;;;4.00;99.90;;;;;;5018628;28;20378;-81
2022/02/08 05:27:45;;;;;;;4.47;1.90;;;4.40;99.90;;;;;;5019270;28;20370;-82
2022/02/08 05:42:24;;;;;;;10.10;1.60;;;4.00;99.90;;;;;;5018035;28;20423;-81
2022/02/08 05:45:13;;;;;;;11.00;1.73;;;4.20;99.90;;;;;;5018324;28;20402;-81
2022/02/08 05:48:01;;;;;;;4.50;2.10;;;4.10;99.90;;;;;;5018725;28;20355;-81
2022/02/08 05:50:56;;;;;;;5.70;2.53;;;4.20;99.90;;;;;;5004244;28;20720;-81
2022/02/08 05:53:43;;;;;;;6.33;1.63;;;4.30;99.90;;;;;;5018740;28;20396;-81
2022/02/08 05:56:27;;;;;;;3.00;2.10;;;4.20;99.90;;;;;;5004027;28;20386;-81
2022/02/08 05:59:12;;;;;;;5.73;1.97;;;4.20;99.90;;;;;;4976628;28;20440;-81
2022/02/08 06:01:57;;;;;;;2.33;2.13;;;4.10;99.90;;;;;;4975683;28;20389;-81
2022/02/08 06:04:43;;;;;;;3.03;2.03;;;4.20;99.90;;;;;;4976191;28;20807;-81
2022/02/08 06:07:29;;;;;;;2.23;2.03;;;4.20;99.90;;;;;;4976202;28;20410;-81
2022/02/08 06:10:14;;;;;;;2.97;2.77;;;4.20;99.90;;;;;;4976142;28;20368;-81
2022/02/08 06:12:58;;;;;;;4.07;1.97;;;4.20;99.90;;;;;;4976790;28;20472;-81
2022/02/08 06:15:45;;;;;;;2.13;1.93;;;4.20;99.90;;;;;;4976312;28;20364;-80
2022/02/08 06:18:31;;;;;;;6.77;2.80;;;4.20;99.90;;;;;;4976026;28;20444;-80
2022/02/08 06:21:16;;;;;;;7.47;2.90;;;4.10;99.90;;;;;;4976420;28;20384;-80
2022/02/08 06:24:01;;;;;;;2.27;2.17;;;4.10;99.90;;;;;;4962805;28;20977;-80
2022/02/08 06:26:46;;;;;;;2.27;2.07;;;4.30;99.90;;;;;;4976074;28;20418;-80
2022/02/08 06:29:30;;;;;;;6.63;1.93;;;4.20;99.90;;;;;;4988972;28;20847;-81
2022/02/08 06:32:14;;;;;;;7.93;2.73;;;4.00;99.90;;;;;;5017469;28;20370;-80
2022/02/08 06:35:05;;;;;;;3.20;1.90;;;4.10;99.90;;;;;;5016923;28;20434;-81
2022/02/08 06:37:50;;;;;;;9.40;3.63;;;4.10;99.90;;;;;;5002602;28;20518;-80
2022/02/08 06:40:37;;;;;;;5.27;2.80;;;4.20;99.90;;;;;;5017519;28;20386;-80
2022/02/08 06:43:22;;;;;;;6.20;2.97;;;4.30;99.90;;;;;;5017364;28;20422;-80
2022/02/08 06:46:06;;;;;;;5.27;2.90;;;4.30;99.90;;;;;;5016783;28;20415;-80
2022/02/08 06:48:51;;;;;;;2.30;2.10;;;4.40;99.90;;;;;;5001964;28;20429;-80
2022/02/08 06:51:36;;;;;;;4.00;2.33;;;4.30;99.90;;;;;;5017387;28;20431;-81
2022/02/08 06:54:21;;;;;;;6.33;2.17;;;4.40;99.90;;;;;;5020650;28;20399;-80
2022/02/08 06:57:06;;;;;;;5.57;2.40;;;4.50;99.90;;;;;;5017466;28;20419;-79
2022/02/08 06:59:53;;;;;;;2.13;1.57;;;4.20;99.90;;;;;;4988755;28;20921;-81
2022/02/08 07:02:37;;;;;;;8.80;2.77;;;4.30;99.90;;;;;;5004377;28;20464;-81
2022/02/08 07:05:22;;;;;;;3.37;1.50;;;4.10;99.90;;;;;;5001578;28;20462;-80
2022/02/08 07:08:08;;;;;;;3.80;1.93;;;4.10;99.90;;;;;;5002364;28;20466;-80
2022/02/08 07:10:53;;;;;;;3.10;2.50;;;4.20;99.90;;;;;;5016700;28;20454;-80
2022/02/08 07:13:39;;;;;;;2.20;2.10;;;4.20;99.90;;;;;;5001723;28;20410;-80
2022/02/08 07:16:24;;;;;;;7.70;2.30;;;4.20;99.90;;;;;;5017231;28;20496;-81
2022/02/08 07:19:09;;;;;;;3.23;2.93;;;4.20;99.90;;;;;;4999718;28;20417;-80
2022/02/08 07:21:53;;;;;;;7.40;2.67;;;4.20;99.90;;;;;;5014321;28;20413;-80
2022/02/08 07:24:38;;;;;;;11.33;3.10;;;4.10;99.90;;;;;;5025300;28;20419;-80
2022/02/08 07:27:23;;;;;;;2.50;2.30;;;4.20;99.90;;;;;;4999937;28;20495;-79
2022/02/08 07:30:10;;;;;;;4.67;3.00;;;4.40;99.90;;;;;;5000292;28;20475;-80
2022/02/08 07:32:55;;;;;;;7.27;2.13;;;4.40;99.90;;;;;;5000595;28;20850;-80
2022/02/08 07:35:51;;;;;;;5.53;2.80;;;4.40;99.90;;;;;;4996790;28;20887;-80
2022/02/08 07:38:38;;;;;;;16.20;3.70;;;4.60;99.90;;;;;;5007796;28;20403;-80
2022/02/08 07:41:39;;;;;;;4.70;3.00;;;4.80;99.90;;;;;;5006341;28;20408;-80
2022/02/08 07:44:24;;;;;;;2.70;1.87;;;4.70;99.90;;;;;;5001358;28;20758;-80
2022/02/08 07:47:09;;;;;;;10.47;4.10;;;4.80;99.90;;;;;;5015179;28;20518;-80
2022/02/08 07:49:53;;;;;;;4.33;3.43;;;4.80;99.90;;;;;;5011178;28;20462;-81
2022/02/08 07:52:38;;;;;;;3.57;2.37;;;4.80;99.90;;;;;;5010339;28;20412;-80
2022/02/08 07:55:23;;;;;;;2.83;2.63;;;4.90;99.90;;;;;;5012060;28;20382;-80
2022/02/08 07:58:08;;;;;;;17.73;4.37;;;4.60;99.90;;;;;;5014757;28;20404;-80
2022/02/08 08:00:53;;;;;;;3.27;2.20;;;4.60;99.90;;;;;;5016496;28;20386;-80
2022/02/08 08:03:41;;;;;;;6.30;2.33;;;4.80;99.90;;;;;;5006814;28;20480;-80
2022/02/08 08:06:28;;;;;;;4.40;2.60;;;5.00;99.90;;;;;;4999302;28;20403;-80
2022/02/08 08:09:13;;;;;;;3.63;1.87;;;5.10;99.90;;;;;;4993963;28;20447;-80
2022/02/08 08:12:00;;;;;;;3.63;2.53;;;5.10;99.90;;;;;;5001907;28;20442;-80
2022/02/08 08:14:46;;;;;;;2.17;1.97;;;5.10;99.90;;;;;;5002022;28;20395;-80
2022/02/08 08:17:53;;;;;;;7.20;2.80;;;5.10;99.90;;;;;;4995618;28;20604;-80
2022/02/08 08:20:34;;;;;;;4.13;1.80;;;5.20;99.90;;;;;;4996292;28;20432;-80
2022/02/08 08:23:19;;;;;;;8.20;2.90;;;5.20;99.90;;;;;;4960864;28;20538;-80
2022/02/08 08:26:04;;;;;;;5.50;1.90;;;5.20;99.90;;;;;;4999018;28;20566;-80
2022/02/08 08:28:49;;;;;;;7.03;2.27;;;5.30;99.90;;;;;;4993633;28;20928;-80
2022/02/08 08:31:33;;;;;;;2.80;2.60;;;5.30;99.90;;;;;;4980059;28;20805;-79
2022/02/08 08:34:18;;;;;;;6.30;2.63;;;5.00;99.90;;;;;;4984658;28;20944;-80
2022/02/08 08:37:05;;;;;;;6.53;2.07;;;5.10;99.90;;;;;;4985361;28;20450;-80
2022/02/08 08:39:52;;;;;;;6.70;3.03;;;5.20;99.90;;;;;;4999725;28;20402;-80
2022/02/08 08:42:47;;;;;;;2.50;2.10;;;5.30;99.90;;;;;;4990936;28;20518;-79
2022/02/08 08:48:50;;;;;;;8.27;2.77;;;5.40;99.90;;;;;;4991950;28;20404;-80
2022/02/08 08:51:41;;;;;;;1.60;1.50;;;5.30;99.90;;;;;;4996717;28;20439;-80
2022/02/08 08:54:26;;;;;;;3.90;3.00;;;5.30;99.90;;;;;;5003539;28;20428;-80
2022/02/08 08:57:10;;;;;;;3.60;1.80;;;5.30;99.90;;;;;;4983981;28;20405;-80
2022/02/08 08:59:55;;;;;;;2.33;1.87;;;5.40;99.90;;;;;;5005254;28;20441;-79
2022/02/08 09:02:40;;;;;;;4.37;1.60;;;5.50;99.90;;;;;;4993554;28;20502;-78
2022/02/08 09:05:25;;;;;;;4.30;4.00;;;5.40;99.90;;;;;;4973299;28;20433;-80
2022/02/08 09:08:10;;;;;;;5.17;2.10;;;5.30;99.90;;;;;;4977701;28;20526;-81
2022/02/08 09:11:02;;;;;;;2.00;1.90;;;5.30;99.90;;;;;;4977642;28;20374;-80
2022/02/08 09:13:55;;;;;;;2.53;1.90;;;5.30;99.90;;;;;;4979281;28;20470;-80
2022/02/08 09:16:50;;;;;;;5.03;2.23;;;5.40;99.90;;;;;;4967311;28;20416;-81
2022/02/08 09:20:03;;;;;;;1.90;1.80;;;5.30;99.90;;;;;;4978538;28;20956;-81
2022/02/08 09:23:16;;;;;;;1.70;1.60;;;5.40;99.90;;;;;;4992962;28;20549;-81
2022/02/08 09:28:58;;;;;;;2.30;1.40;;;5.20;99.90;;;;;;4989747;28;20426;-81
2022/02/08 09:31:44;;;;;;;2.60;1.80;;;5.30;99.90;;;;;;4991831;28;20418;-81
2022/02/08 09:34:29;;;;;;;10.10;2.27;;;5.40;99.90;;;;;;4992127;28;20464;-80
2022/02/08 09:37:17;;;;;;;1.37;1.27;;;5.50;99.90;;;;;;4994036;28;20418;-81
2022/02/08 09:40:03;;;;;;;1.60;1.50;;;5.20;99.90;;;;;;4995342;28;20432;-81
2022/02/08 09:42:51;;;;;;;4.10;1.93;;;5.30;99.90;;;;;;4995001;28;20468;-79
2022/02/08 09:45:37;;;;;;;3.63;1.80;;;5.30;99.90;;;;;;4992333;28;20474;-81
2022/02/08 09:48:29;;;;;;;2.13;1.50;;;5.30;99.90;;;;;;4995284;28;20416;-80
2022/02/08 09:51:16;;;;;;;3.50;2.13;;;5.30;99.90;;;;;;4991951;28;20411;-80
2022/02/08 09:54:03;;;;;;;2.03;1.77;;;5.50;99.90;;;;;;4990703;28;20462;-80
2022/02/08 09:56:47;;;;;;;1.67;1.57;;;5.70;99.90;;;;;;4981116;28;20478;-81
2022/02/08 09:59:34;;;;;;;4.43;2.60;;;5.70;99.90;;;;;;4980516;28;20443;-80
2022/02/08 10:02:20;;;;;;;4.00;1.43;;;5.70;99.90;;;;;;4990774;28;20468;-80
2022/02/08 10:05:08;;;;;;;4.70;2.10;;;5.40;99.90;;;;;;4979076;28;20479;-80
2022/02/08 10:07:52;;;;;;;4.80;2.10;;;5.20;99.90;;;;;;4992719;28;20459;-80
2022/02/08 10:10:38;;;;;;;1.57;1.43;;;5.20;99.90;;;;;;4991234;28;20925;-80
2022/02/08 10:20:02;;;;;;;2.60;2.00;;;5.00;99.90;;;;;;4991604;28;20452;-81
2022/02/08 10:22:31;;;;;;;5.97;2.17;;;5.20;99.90;;;;;;4990157;28;20949;-80
2022/02/08 10:25:40;;;;;;;2.83;2.20;;;5.30;99.90;;;;;;4989941;28;20408;-81
2022/02/08 10:28:33;;;;;;;2.43;1.50;;;5.40;99.90;;;;;;4992257;28;20458;-79
2022/02/08 10:31:28;;;;;;;2.83;2.63;;;5.60;99.90;;;;;;4980619;28;20384;-78
2022/02/08 10:40:29;;;;;;;2.30;2.10;;;5.70;99.90;;;;;;4991080;28;20429;-80
2022/02/08 10:43:16;;;;;;;2.40;2.20;;;5.90;99.90;;;;;;4911956;28;20456;-80
2022/02/08 10:46:01;;;;;;;4.97;2.27;;;6.00;99.90;;;;;;4992745;28;20919;-80
2022/02/08 10:48:45;;;;;;;2.17;2.07;;;6.10;99.90;;;;;;4993290;28;20518;-80
2022/02/08 10:51:36;;;;;;;3.43;2.63;;;6.10;99.90;;;;;;4978416;28;20424;-81
2022/02/08 10:54:32;;;;;;;2.17;1.60;;;6.10;99.90;;;;;;4968554;28;21313;-81
2022/02/08 10:57:26;;;;;;;4.13;2.37;;;6.20;99.90;;;;;;4992022;28;20460;-81
2022/02/08 11:00:11;;;;;;;7.60;2.47;;;5.90;99.90;;;;;;4993508;28;20423;-80
2022/02/08 11:02:59;;;;;;;7.73;2.60;;;5.80;99.90;;;;;;4986493;28;20926;-80
2022/02/08 11:12:13;;;;;;;2.47;1.93;;;6.20;99.90;;;;;;5013310;28;20429;-79
2022/02/08 11:15:05;;;;;;;3.40;2.90;;;6.00;99.90;;;;;;5003351;28;20447;-80
2022/02/08 11:18:27;;;;;;;2.37;2.17;;;6.10;99.90;;;;;;4971079;28;20570;-81
2022/02/08 11:21:42;;;;;;;2.67;1.60;;;6.10;99.90;;;;;;4977535;28;20572;-80
2022/02/08 11:24:28;;;;;;;2.80;2.17;;;6.20;99.90;;;;;;4977083;28;20877;-81
2022/02/08 11:27:16;;;;;;;6.60;2.20;;;6.30;99.90;;;;;;4961923;28;20496;-81
2022/02/08 11:30:07;;;;;;;4.80;2.07;;;6.20;99.90;;;;;;4975036;28;20766;-81
2022/02/08 11:39:16;;;;;;;1.90;1.53;;;6.20;99.90;;;;;;4976482;28;20908;-80
2022/02/08 11:45:41;;;;;;;4.23;2.00;;;6.20;99.90;;;;;;4971602;28;20843;-81
2022/02/08 11:48:44;;;;;;;1.47;1.30;;;6.30;99.90;;;;;;4986574;28;20447;-80
2022/02/08 11:54:44;;;;;;;2.10;1.37;;;6.40;99.90;;;;;;5004191;28;20406;-79
2022/02/08 12:00:57;;;;;;;9.97;2.37;;;5.80;99.90;;;;;;5002562;28;20888;-80
2022/02/08 12:07:03;;;;;;;4.47;2.67;;;5.70;99.90;;;;;;4987145;28;20464;-80
2022/02/08 12:09:57;;;;;;;2.60;1.97;;;6.10;99.90;;;;;;4975801;28;20486;-80
2022/02/08 12:13:04;;;;;;;4.17;2.40;;;6.10;99.90;;;;;;5001609;28;20414;-80
2022/02/08 12:28:47;;;;;;;4.10;2.10;;;6.10;99.90;;;;;;5014989;28;20981;-80
2022/02/08 12:34:17;;;;;;;3.10;2.47;;;6.10;99.90;;;;;;5002767;28;20446;-81
2022/02/08 13:04:34;;;;;;;14.57;3.70;;;6.60;99.90;;;;;;5008435;28;20446;-79
2022/02/08 14:01:48;;;;;;;9.07;3.03;;;7.10;99.90;;;;;;4964867;29;20481;-80
2022/02/08 14:07:35;;;;;;;4.40;2.77;;;6.90;99.90;;;;;;4966399;28;20385;-80
2022/02/08 14:10:30;;;;;;;4.70;1.80;;;7.00;99.90;;;;;;4957179;29;20399;-79
2022/02/08 14:13:47;;;;;;;2.50;1.80;;;7.00;99.90;;;;;;4978746;28;20406;-80
2022/02/08 14:16:39;;;;;;;3.00;2.13;;;7.10;99.90;;;;;;5013630;28;20393;-79
2022/02/08 14:19:31;;;;;;;3.10;2.03;;;7.10;99.90;;;;;;5026095;28;20750;-80
2022/02/08 14:22:33;;;;;;;1.70;1.60;;;7.10;99.90;;;;;;5026055;28;20470;-80
2022/02/08 14:25:32;;;;;;;5.30;2.73;;;7.10;99.90;;;;;;5029022;28;20415;-80
2022/02/08 14:34:29;;;;;;;5.13;2.50;;;7.00;99.90;;;;;;5015318;28;20874;-80
2022/02/08 14:48:48;;;;;;;3.30;1.87;;;7.00;99.90;;;;;;4989837;28;20501;-80
2022/02/08 15:10:48;;;;;;;2.27;1.67;;;7.00;99.90;;;;;;4944589;29;20437;-80
2022/02/08 15:13:33;;;;;;;3.23;1.63;;;6.80;99.90;;;;;;4955605;29;20462;-80
2022/02/08 15:16:25;;;;;;;2.30;2.10;;;6.70;99.90;;;;;;4946571;29;21139;-80
2022/02/08 15:19:10;;;;;;;3.50;2.50;;;6.80;99.90;;;;;;4958434;29;20525;-81
2022/02/08 15:21:55;;;;;;;6.97;2.37;;;6.80;99.90;;;;;;4981541;28;20965;-81
2022/02/08 15:24:41;;;;;;;1.93;1.73;;;6.90;99.90;;;;;;4982011;28;20578;-80
2022/02/08 15:27:27;;;;;;;1.60;1.50;;;6.90;99.90;;;;;;4995112;28;20455;-81
2022/02/08 15:30:12;;;;;;;3.17;2.30;;;6.90;99.90;;;;;;4995820;28;20412;-80
2022/02/08 15:32:58;;;;;;;2.90;2.70;;;7.00;99.90;;;;;;4995231;28;20870;-81
2022/02/08 15:35:43;;;;;;;2.03;1.90;;;7.00;99.90;;;;;;4995247;28;20420;-81
2022/02/08 15:38:31;;;;;;;2.47;2.27;;;6.80;99.90;;;;;;4996384;28;20504;-80
2022/02/08 15:41:17;;;;;;;4.05;3.00;;;6.80;99.90;;;;;;5016411;28;20404;-81
2022/02/08 15:44:02;;;;;;;5.13;2.10;;;6.90;99.90;;;;;;5018349;28;20661;-80
2022/02/08 15:46:48;;;;;;;3.10;2.57;;;6.80;99.90;;;;;;5016931;28;20415;-81
2022/02/08 15:49:34;;;;;;;2.50;2.33;;;6.80;99.90;;;;;;5002608;28;20510;-80
2022/02/08 15:52:40;;;;;;;3.73;1.83;;;6.80;99.90;;;;;;5018433;28;20374;-81
2022/02/08 15:58:25;;;;;;;2.90;1.90;;;6.80;99.90;;;;;;5019610;28;20440;-80
2022/02/08 16:01:15;;;;;;;3.47;3.10;;;6.70;99.90;;;;;;4990366;28;20390;-80
2022/02/08 16:07:08;;;;;;;1.87;1.77;;;6.70;99.90;;;;;;5002768;28;20470;-80
2022/02/08 16:10:09;;;;;;;2.00;1.90;;;6.80;99.90;;;;;;4992397;28;20419;-79
2022/02/08 16:13:30;;;;;;;2.10;1.90;;;6.80;99.90;;;;;;5009002;28;20878;-79
2022/02/08 16:19:16;;;;;;;2.60;2.40;;;6.70;99.90;;;;;;5019024;28;20417;-80
2022/02/08 16:25:20;;;;;;;3.53;2.10;;;6.70;99.90;;;;;;5017939;28;20519;-80
2022/02/08 16:31:30;;;;;;;2.40;2.20;;;6.90;99.90;;;;;;5028954;28;20478;-79
2022/02/08 16:46:18;;;;;;;2.43;2.23;;;6.90;99.90;;;;;;5025299;28;20837;-79
2022/02/08 16:52:42;;;;;;;4.83;3.23;;;6.80;99.90;;;;;;5027821;28;20390;-81
2022/02/08 16:55:25;;;;;;;3.83;1.87;;;6.70;99.90;;;;;;5009969;28;20445;-80
2022/02/08 16:58:26;;;;;;;2.00;1.90;;;6.70;99.90;;;;;;5008511;28;20400;-80
2022/02/08 17:01:14;;;;;;;3.20;2.03;;;6.70;99.90;;;;;;4995476;28;20379;-80
2022/02/08 17:03:59;;;;;;;1.10;1.00;;;6.60;99.90;;;;;;5018830;28;20495;-80
2022/02/08 17:06:43;;;;;;;2.30;2.10;;;6.50;99.90;;;;;;5012649;28;20464;-80
2022/02/08 17:09:44;;;;;;;2.80;2.03;;;6.50;99.90;;;;;;5031620;28;20429;-80
2022/02/08 17:12:42;;;;;;;3.63;2.03;;;6.50;99.90;;;;;;5047942;28;20435;-80
2022/02/08 17:15:45;;;;;;;2.47;2.27;;;6.50;99.90;;;;;;5039217;28;20403;-80
2022/02/08 17:18:57;;;;;;;4.87;2.20;;;6.50;99.90;;;;;;5028108;28;20454;-80
2022/02/08 17:37:56;;;;;;;4.67;2.43;;;6.40;99.90;;;;;;5027481;28;20532;-80
2022/02/08 17:45:57;;;;;;;3.53;3.23;;;6.50;99.90;;;;;;5028354;28;20386;-80
2022/02/08 17:48:40;;;;;;;2.90;2.70;;;6.50;99.90;;;;;;5028505;28;20451;-80
2022/02/08 17:51:24;;;;;;;3.87;2.40;;;6.50;99.90;;;;;;5028080;28;20927;-80
2022/02/08 17:54:09;;;;;;;3.23;2.93;;;6.40;99.90;;;;;;5025729;28;20911;-78
2022/02/08 17:56:56;;;;;;;6.10;3.80;;;6.50;99.90;;;;;;5026801;28;20392;-80
2022/02/08 17:59:41;;;;;;;14.97;3.70;;;6.50;99.90;;;;;;5013865;28;20407;-79
2022/02/08 18:02:26;;;;;;;2.70;2.50;;;6.50;99.90;;;;;;5025194;28;20370;-80
2022/02/08 18:05:12;;;;;;;3.90;3.13;;;6.60;99.90;;;;;;4994008;28;20466;-80
2022/02/08 18:07:58;;;;;;;4.67;3.73;;;6.60;99.90;;;;;;5010202;28;20370;-81
2022/02/08 18:10:47;;;;;;;3.90;3.60;;;6.50;99.90;;;;;;5011683;28;20413;-80
2022/02/08 18:13:38;;;;;;;5.03;4.50;;;6.50;99.90;;;;;;5012909;28;20401;-80
2022/02/08 18:16:24;;;;;;;4.00;3.57;;;6.60;99.90;;;;;;5012201;28;20443;-80
2022/02/08 18:19:13;;;;;;;4.23;2.63;;;6.60;99.90;;;;;;4997681;28;20397;-80
2022/02/08 18:22:20;;;;;;;3.77;3.47;;;6.60;99.90;;;;;;4987324;28;20444;-80
2022/02/08 18:28:32;;;;;;;4.70;4.00;;;6.60;99.90;;;;;;5001692;28;20375;-80
2022/02/08 19:07:20;;;;;;;4.20;3.90;;;6.60;99.90;;;;;;5024620;28;20419;-79
2022/02/08 19:10:26;;;;;;;4.90;4.50;;;6.60;99.90;;;;;;5023116;28;20629;-80
2022/02/08 19:13:39;;;;;;;5.63;3.60;;;6.50;99.90;;;;;;5016229;28;20412;-80
2022/02/08 19:16:24;;;;;;;5.70;4.37;;;6.60;99.90;;;;;;5013008;28;20408;-79
2022/02/08 19:19:33;;;;;;;4.67;4.20;;;6.60;99.90;;;;;;5011623;28;20411;-79
2022/02/08 19:22:16;;;;;;;16.37;4.47;;;6.60;99.90;;;;;;5011416;28;20431;-80
2022/02/08 19:25:01;;;;;;;5.00;4.00;;;6.60;99.90;;;;;;5009816;28;20393;-80
2022/02/08 19:27:46;;;;;;;6.10;5.43;;;6.70;99.90;;;;;;5009402;28;20432;-80
2022/02/08 19:30:30;;;;;;;9.23;4.37;;;6.60;99.90;;;;;;5009090;28;20388;-80
2022/02/08 19:33:14;;;;;;;4.40;3.90;;;6.70;99.90;;;;;;5008107;28;20389;-80
2022/02/08 19:35:59;;;;;;;7.60;4.17;;;6.60;99.90;;;;;;5004760;28;20371;-80
2022/02/08 19:38:48;;;;;;;4.30;3.23;;;6.70;99.90;;;;;;5011869;28;20520;-80
2022/02/08 19:41:33;;;;;;;5.60;4.33;;;6.60;99.90;;;;;;5011328;28;20391;-80
2022/02/08 19:44:18;;;;;;;5.33;3.83;;;6.70;99.90;;;;;;5011469;28;20460;-79
2022/02/08 19:47:03;;;;;;;5.33;4.27;;;6.70;99.90;;;;;;5010429;28;20595;-78
2022/02/08 19:49:47;;;;;;;3.70;3.40;;;6.60;99.90;;;;;;5019390;28;20489;-79
2022/02/08 19:52:33;;;;;;;5.00;3.50;;;6.60;99.90;;;;;;5012344;28;20443;-79
2022/02/08 19:55:33;;;;;;;4.03;3.63;;;6.70;99.90;;;;;;4994022;28;20432;-79
2022/02/08 19:58:24;;;;;;;3.53;3.23;;;6.70;99.90;;;;;;5009957;28;20437;-79
2022/02/08 20:01:15;;;;;;;3.30;3.10;;;6.80;99.90;;;;;;5008689;28;20396;-77
2022/02/08 20:04:15;;;;;;;4.57;3.80;;;6.80;99.90;;;;;;5023965;28;20484;-79
2022/02/08 20:07:01;;;;;;;5.30;4.23;;;6.80;99.90;;;;;;5029657;28;20451;-79
2022/02/08 20:09:45;;;;;;;6.23;4.10;;;6.90;99.90;;;;;;5029195;28;20391;-79
2022/02/08 20:12:30;;;;;;;9.83;5.67;;;6.80;99.90;;;;;;5015126;28;20431;-80
2022/02/08 20:15:16;;;;;;;4.53;4.13;;;6.70;99.90;;;;;;5015853;28;20884;-81
2022/02/08 20:18:02;;;;;;;6.33;4.70;;;6.80;99.90;;;;;;5031069;28;20365;-80
2022/02/08 20:20:48;;;;;;;13.33;4.43;;;6.80;99.90;;;;;;5031793;28;20483;-80
2022/02/08 20:23:35;;;;;;;5.20;4.33;;;6.80;99.90;;;;;;5014733;28;20449;-80
2022/02/08 20:26:23;;;;;;;5.17;4.27;;;6.80;99.90;;;;;;5030785;28;20359;-80
2022/02/08 20:29:09;;;;;;;4.40;3.87;;;6.80;99.90;;;;;;5031018;28;20447;-80
2022/02/08 20:31:53;;;;;;;5.50;4.27;;;6.90;99.90;;;;;;5031241;28;20384;-80
2022/02/08 20:34:39;;;;;;;7.70;4.77;;;7.00;99.90;;;;;;5029765;28;20399;-80
2022/02/08 20:37:24;;;;;;;5.87;3.90;;;7.00;99.90;;;;;;5015276;28;20442;-80
2022/02/08 20:40:09;;;;;;;8.40;3.90;;;6.90;99.90;;;;;;5030075;28;20424;-80
2022/02/08 20:42:56;;;;;;;4.53;4.13;;;7.00;99.90;;;;;;5030352;28;20463;-80